createdAt,value
2019-03-26T00:02:10.857Z,3.80
2019-03-26T00:04:39.295Z,3.70
2019-03-26T00:07:07.713Z,3.60
2019-03-26T00:09:36.144Z,3.60
2019-03-26T00:12:04.625Z,3.70
2019-03-26T00:14:33.066Z,3.80
2019-03-26T00:17:01.545Z,4.00
2019-03-26T00:19:30.061Z,3.90
2019-03-26T00:21:58.486Z,3.70
2019-03-26T00:24:26.965Z,3.50
2019-03-26T00:26:55.375Z,3.40
2019-03-26T00:29:23.802Z,3.40
2019-03-26T00:31:52.246Z,3.40
2019-03-26T00:34:20.723Z,3.40
2019-03-26T00:36:49.127Z,3.40
2019-03-26T00:39:17.545Z,3.30
2019-03-26T00:41:46.016Z,3.30
2019-03-26T00:44:14.430Z,3.20
2019-03-26T00:46:42.927Z,3.20
2019-03-26T00:49:11.347Z,3.20
2019-03-26T00:51:39.875Z,3.10
2019-03-26T00:54:08.275Z,3.10
2019-03-26T00:56:36.752Z,3.10
2019-03-26T00:59:05.153Z,2.90
2019-03-26T01:01:33.642Z,3.00
2019-03-26T01:04:02.106Z,2.90
2019-03-26T01:06:30.556Z,3.00
2019-03-26T01:08:58.967Z,3.00
2019-03-26T01:11:27.418Z,3.10
2019-03-26T01:13:55.812Z,3.00
2019-03-26T01:16:24.226Z,3.00
2019-03-26T01:18:52.694Z,2.80
2019-03-26T01:21:21.125Z,2.70
2019-03-26T01:23:49.577Z,2.70
2019-03-26T01:26:18.009Z,2.60
2019-03-26T01:28:46.454Z,2.50
2019-03-26T01:31:14.864Z,2.50
2019-03-26T01:33:43.309Z,2.50
2019-03-26T01:36:11.730Z,2.60
2019-03-26T01:38:40.166Z,2.70
2019-03-26T01:41:08.591Z,2.60
2019-03-26T01:43:37.040Z,2.50
2019-03-26T01:46:05.463Z,2.30
2019-03-26T01:48:33.920Z,2.20
2019-03-26T01:51:02.330Z,2.10
2019-03-26T01:53:30.773Z,2.10
2019-03-26T01:55:59.194Z,2.10
2019-03-26T01:58:27.651Z,2.30
2019-03-26T02:00:56.078Z,2.20
2019-03-26T02:03:24.527Z,2.30
2019-03-26T02:05:52.948Z,2.30
2019-03-26T02:08:21.390Z,2.20
2019-03-26T02:10:49.813Z,2.30
2019-03-26T02:13:18.276Z,2.30
2019-03-26T02:15:46.716Z,2.20
2019-03-26T02:18:15.148Z,2.20
2019-03-26T02:20:43.565Z,2.30
2019-03-26T02:23:12.017Z,2.50
2019-03-26T02:25:40.452Z,2.60
2019-03-26T02:28:08.865Z,2.70
2019-03-26T02:30:37.317Z,2.60
2019-03-26T02:33:05.732Z,2.70
2019-03-26T02:35:34.183Z,2.60
2019-03-26T02:38:02.675Z,2.60
2019-03-26T02:40:31.125Z,2.60
2019-03-26T02:42:59.544Z,2.60
2019-03-26T02:45:28.005Z,2.60
2019-03-26T02:47:56.485Z,2.50
2019-03-26T02:50:24.946Z,2.40
2019-03-26T02:52:53.636Z,2.40
2019-03-26T02:55:22.083Z,2.30
2019-03-26T02:57:50.504Z,2.30
2019-03-26T03:00:19.017Z,2.40
2019-03-26T03:02:47.628Z,2.50
2019-03-26T03:05:33.539Z,2.60
2019-03-26T03:07:46.207Z,2.50
2019-03-26T03:10:14.930Z,2.50
2019-03-26T03:12:43.488Z,2.50
2019-03-26T03:15:12.174Z,2.50
2019-03-26T03:17:41.991Z,2.60
2019-03-26T03:20:10.675Z,2.60
2019-03-26T03:22:39.117Z,2.60
2019-03-26T03:25:07.897Z,2.60
2019-03-26T03:27:36.412Z,2.70
2019-03-26T03:30:07.176Z,2.80
2019-03-26T03:32:35.887Z,2.90
2019-03-26T03:35:06.321Z,2.80
2019-03-26T03:37:34.836Z,2.60
2019-03-26T03:40:03.335Z,2.60
2019-03-26T03:42:31.845Z,2.60
2019-03-26T03:45:00.559Z,2.70
2019-03-26T03:47:32.162Z,2.90
2019-03-26T03:50:01.438Z,3.20
2019-03-26T03:52:32.946Z,3.30
2019-03-26T03:55:01.509Z,3.40
2019-03-26T03:57:31.681Z,3.40
2019-03-26T04:00:00.988Z,3.30
2019-03-26T04:02:29.532Z,3.20
2019-03-26T04:04:57.958Z,3.10
2019-03-26T04:07:26.414Z,3.10
2019-03-26T04:09:54.834Z,3.10
2019-03-26T04:12:23.267Z,3.10
2019-03-26T04:14:51.689Z,3.10
2019-03-26T04:17:20.128Z,3.10
2019-03-26T04:19:48.542Z,3.10
2019-03-26T04:22:16.992Z,3.10
2019-03-26T04:24:45.396Z,3.10
2019-03-26T04:27:13.815Z,3.10
2019-03-26T04:29:42.246Z,3.10
2019-03-26T04:32:10.684Z,3.10
2019-03-26T04:34:39.129Z,3.10
2019-03-26T04:37:07.533Z,3.10
2019-03-26T04:39:35.969Z,3.20
2019-03-26T04:42:04.458Z,3.30
2019-03-26T04:44:32.884Z,3.40
2019-03-26T04:47:01.312Z,3.30
2019-03-26T04:49:29.747Z,3.20
2019-03-26T04:51:58.160Z,3.40
2019-03-26T04:54:26.596Z,3.50
2019-03-26T04:56:55.009Z,3.50
2019-03-26T04:59:23.465Z,3.40
2019-03-26T05:01:51.883Z,3.30
2019-03-26T05:04:20.325Z,3.30
2019-03-26T05:06:48.758Z,3.40
2019-03-26T05:09:17.194Z,3.60
2019-03-26T05:11:45.608Z,3.70
2019-03-26T05:14:14.038Z,3.70
2019-03-26T05:16:42.464Z,3.80
2019-03-26T05:19:10.973Z,3.90
2019-03-26T05:21:39.403Z,3.90
2019-03-26T05:24:08.747Z,3.80
2019-03-26T05:26:37.189Z,3.60
2019-03-26T05:29:05.633Z,3.60
2019-03-26T05:31:34.061Z,3.50
2019-03-26T05:34:02.494Z,3.50
2019-03-26T05:36:30.945Z,3.40
2019-03-26T05:38:59.381Z,3.30
2019-03-26T05:41:27.797Z,3.20
2019-03-26T05:43:56.225Z,3.20
2019-03-26T05:46:24.662Z,3.20
2019-03-26T05:48:53.072Z,3.20
2019-03-26T05:51:21.506Z,3.30
2019-03-26T05:53:49.929Z,3.30
2019-03-26T05:56:18.366Z,3.30
2019-03-26T05:58:46.781Z,3.30
2019-03-26T06:01:15.234Z,3.30
2019-03-26T06:03:43.653Z,3.40
2019-03-26T06:06:12.093Z,3.50
2019-03-26T06:08:40.509Z,3.50
2019-03-26T06:11:08.965Z,3.60
2019-03-26T06:13:37.377Z,3.70
2019-03-26T06:16:05.825Z,3.80
2019-03-26T06:18:34.233Z,3.80
2019-03-26T06:21:02.658Z,3.90
2019-03-26T06:23:31.107Z,3.90
2019-03-26T06:25:59.527Z,3.80
2019-03-26T06:28:27.961Z,3.80
2019-03-26T06:30:56.380Z,3.90
2019-03-26T06:33:24.822Z,3.90
2019-03-26T06:35:53.241Z,3.90
2019-03-26T06:38:21.686Z,3.90
2019-03-26T06:40:50.446Z,4.00
2019-03-26T06:43:18.882Z,4.00
2019-03-26T06:45:47.308Z,4.00
2019-03-26T06:48:15.750Z,4.10
2019-03-26T06:50:44.164Z,4.20
2019-03-26T06:53:12.604Z,4.30
2019-03-26T06:55:41.021Z,4.50
2019-03-26T06:58:09.453Z,4.50
2019-03-26T07:00:37.865Z,4.50
2019-03-26T07:03:07.054Z,4.60
2019-03-26T07:05:35.498Z,4.80
2019-03-26T07:08:04.168Z,4.90
2019-03-26T07:10:32.775Z,4.90
2019-03-26T07:13:01.191Z,4.90
2019-03-26T07:15:29.639Z,5.00
2019-03-26T07:17:58.067Z,4.90
2019-03-26T07:20:26.494Z,5.00
2019-03-26T07:22:54.922Z,4.90
2019-03-26T07:25:23.420Z,4.90
2019-03-26T07:27:51.918Z,5.00
2019-03-26T07:30:29.206Z,5.10
2019-03-26T07:32:57.630Z,5.30
2019-03-26T07:35:26.072Z,5.40
2019-03-26T07:37:54.492Z,5.60
2019-03-26T07:40:22.934Z,5.70
2019-03-26T07:42:51.359Z,5.80
2019-03-26T07:45:19.790Z,5.80
2019-03-26T07:47:48.209Z,6.00
2019-03-26T07:50:16.727Z,6.10
2019-03-26T07:52:45.131Z,6.20
2019-03-26T07:55:13.998Z,6.30
2019-03-26T07:57:42.509Z,6.40
2019-03-26T08:00:12.474Z,6.50
2019-03-26T08:02:40.901Z,6.50
2019-03-26T08:05:09.557Z,6.50
2019-03-26T08:07:38.059Z,6.60
2019-03-26T08:10:08.210Z,6.70
2019-03-26T08:12:36.714Z,6.70
2019-03-26T08:15:07.639Z,6.70
2019-03-26T08:17:36.107Z,6.70
2019-03-26T08:20:07.400Z,6.70
2019-03-26T08:22:35.848Z,6.70
2019-03-26T08:25:06.508Z,6.60
2019-03-26T08:27:35.020Z,6.60
2019-03-26T08:30:04.787Z,6.60
2019-03-26T08:32:33.223Z,6.80
2019-03-26T08:35:01.635Z,7.00
2019-03-26T08:37:30.084Z,7.30
2019-03-26T08:39:58.503Z,7.40
2019-03-26T08:42:26.948Z,7.60
2019-03-26T08:44:55.332Z,7.60
2019-03-26T08:47:23.788Z,7.70
2019-03-26T08:49:52.205Z,7.60
2019-03-26T08:52:20.648Z,7.60
2019-03-26T08:54:49.105Z,7.80
2019-03-26T08:57:17.585Z,7.90
2019-03-26T08:59:46.032Z,7.90
2019-03-26T09:02:14.469Z,8.00
2019-03-26T09:04:42.917Z,8.00
2019-03-26T09:07:11.369Z,7.80
2019-03-26T09:09:40.003Z,7.80
2019-03-26T09:12:08.561Z,7.90
2019-03-26T09:14:36.993Z,7.90
2019-03-26T09:17:05.549Z,7.90
2019-03-26T09:19:33.996Z,7.80
2019-03-26T09:22:02.418Z,7.70
2019-03-26T09:24:30.856Z,7.50
2019-03-26T09:26:59.269Z,7.30
2019-03-26T09:29:27.764Z,7.30
2019-03-26T09:31:56.168Z,7.30
2019-03-26T09:34:24.613Z,7.40
2019-03-26T09:36:53.032Z,7.60
2019-03-26T09:39:21.452Z,7.50
2019-03-26T09:41:49.890Z,7.60
2019-03-26T09:44:18.401Z,7.60
2019-03-26T09:46:46.813Z,7.70
2019-03-26T09:49:15.333Z,7.90
2019-03-26T09:51:43.751Z,7.90
2019-03-26T09:54:12.189Z,7.90
2019-03-26T09:56:40.604Z,7.80
2019-03-26T09:59:09.069Z,7.70
2019-03-26T10:01:37.497Z,7.60
2019-03-26T10:04:05.940Z,7.60
2019-03-26T10:06:34.437Z,7.80
2019-03-26T10:09:03.024Z,7.80
2019-03-26T10:11:31.474Z,7.80
2019-03-26T10:13:59.882Z,8.00
2019-03-26T10:16:29.690Z,8.10
2019-03-26T10:18:58.208Z,8.10
2019-03-26T10:21:26.640Z,8.20
2019-03-26T10:23:55.058Z,8.40
2019-03-26T10:26:23.485Z,8.60
2019-03-26T10:28:51.908Z,8.70
2019-03-26T10:31:20.406Z,8.90
2019-03-26T10:33:48.825Z,8.80
2019-03-26T10:36:17.345Z,8.70
2019-03-26T10:38:45.763Z,8.50
2019-03-26T10:41:14.209Z,8.40
2019-03-26T10:43:42.623Z,8.20
2019-03-26T10:46:11.129Z,8.20
2019-03-26T10:48:39.570Z,8.20
2019-03-26T10:51:08.001Z,8.20
2019-03-26T10:53:36.434Z,8.20
2019-03-26T10:56:05.004Z,8.20
2019-03-26T10:58:33.437Z,8.10
2019-03-26T11:01:01.904Z,8.10
2019-03-26T11:03:30.349Z,8.10
2019-03-26T11:05:58.807Z,8.10
2019-03-26T11:08:27.227Z,8.10
2019-03-26T11:10:55.710Z,8.20
2019-03-26T11:13:24.158Z,8.30
2019-03-26T11:15:52.591Z,8.30
2019-03-26T11:18:24.021Z,8.30
2019-03-26T11:21:02.477Z,8.40
2019-03-26T11:23:22.589Z,8.40
2019-03-26T11:25:51.089Z,8.50
2019-03-26T11:28:19.618Z,8.70
2019-03-26T11:30:48.094Z,8.80
2019-03-26T11:33:16.528Z,8.80
2019-03-26T11:35:45.028Z,8.80
2019-03-26T11:38:13.453Z,8.80
2019-03-26T11:40:41.904Z,8.60
2019-03-26T11:43:10.398Z,8.60
2019-03-26T11:45:38.882Z,8.60
2019-03-26T11:48:07.309Z,8.60
2019-03-26T11:50:35.892Z,8.60
2019-03-26T11:53:04.368Z,8.60
2019-03-26T11:55:32.827Z,8.70
2019-03-26T11:58:01.244Z,8.70
2019-03-26T12:00:31.332Z,8.90
2019-03-26T12:02:59.939Z,9.10
2019-03-26T12:05:28.372Z,9.10
2019-03-26T12:07:56.798Z,9.20
2019-03-26T12:10:25.304Z,9.20
2019-03-26T12:12:53.709Z,9.20
2019-03-26T12:15:22.149Z,9.10
2019-03-26T12:17:50.567Z,9.10
2019-03-26T12:20:19.017Z,9.00
2019-03-26T12:22:47.429Z,8.80
2019-03-26T12:25:15.941Z,8.80
2019-03-26T12:27:44.370Z,8.90
2019-03-26T12:30:14.914Z,8.90
2019-03-26T12:32:43.360Z,8.80
2019-03-26T12:35:14.872Z,8.80
2019-03-26T12:37:43.302Z,8.80
2019-03-26T12:40:11.972Z,8.90
2019-03-26T12:42:40.386Z,8.80
2019-03-26T12:45:09.273Z,9.00
2019-03-26T12:47:37.739Z,9.10
2019-03-26T12:50:07.442Z,9.10
2019-03-26T12:52:35.878Z,9.10
2019-03-26T12:55:05.984Z,9.20
2019-03-26T12:57:34.385Z,9.40
2019-03-26T13:00:03.043Z,9.60
2019-03-26T13:02:31.484Z,9.70
2019-03-26T13:04:59.925Z,9.90
2019-03-26T13:07:28.355Z,9.80
2019-03-26T13:09:56.862Z,9.90
2019-03-26T13:12:25.315Z,9.90
2019-03-26T13:14:53.732Z,9.90
2019-03-26T13:17:22.166Z,9.70
2019-03-26T13:19:50.661Z,9.80
2019-03-26T13:22:19.108Z,9.70
2019-03-26T13:24:47.584Z,9.70
2019-03-26T13:27:16.046Z,9.70
2019-03-26T13:29:44.570Z,9.90
2019-03-26T13:32:13.282Z,10.00
2019-03-26T13:34:41.725Z,10.20
2019-03-26T13:37:10.187Z,10.30
2019-03-26T13:39:38.637Z,10.40
2019-03-26T13:42:07.070Z,10.50
2019-03-26T13:44:35.521Z,10.50
2019-03-26T13:47:04.021Z,10.70
2019-03-26T13:49:32.471Z,10.80
2019-03-26T13:52:00.920Z,10.70
2019-03-26T13:54:29.348Z,10.90
2019-03-26T13:56:57.781Z,10.80
2019-03-26T13:59:26.251Z,10.70
2019-03-26T14:01:54.753Z,10.60
2019-03-26T14:04:23.200Z,10.60
2019-03-26T14:06:52.663Z,10.50
2019-03-26T14:09:21.265Z,10.40
2019-03-26T14:11:49.672Z,10.40
2019-03-26T14:14:18.112Z,10.40
2019-03-26T14:16:46.529Z,10.40
2019-03-26T14:19:15.054Z,10.30
2019-03-26T14:21:44.492Z,10.20
2019-03-26T14:24:13.573Z,10.10
2019-03-26T14:26:42.111Z,10.10
2019-03-26T14:29:10.554Z,10.20
2019-03-26T14:31:38.997Z,10.50
2019-03-26T14:34:07.425Z,10.80
2019-03-26T14:36:35.948Z,11.10
2019-03-26T14:39:07.497Z,11.10
2019-03-26T14:41:35.947Z,11.00
2019-03-26T14:44:04.488Z,10.80
2019-03-26T14:46:32.950Z,10.60
2019-03-26T14:49:01.383Z,11.00
2019-03-26T14:51:29.816Z,11.70
2019-03-26T14:53:58.242Z,11.60
2019-03-26T14:56:26.823Z,11.40
2019-03-26T14:58:55.258Z,11.70
2019-03-26T15:01:23.690Z,12.70
2019-03-26T15:03:52.117Z,13.10
2019-03-26T15:06:20.565Z,13.30
2019-03-26T15:08:48.993Z,12.70
2019-03-26T15:11:17.527Z,12.10
2019-03-26T15:13:49.231Z,11.60
2019-03-26T15:16:16.205Z,11.00
2019-03-26T15:18:44.757Z,10.70
2019-03-26T15:21:13.211Z,10.50
2019-03-26T15:23:41.639Z,10.60
2019-03-26T15:26:10.092Z,11.00
2019-03-26T15:28:38.511Z,11.60
2019-03-26T15:31:07.021Z,12.10
2019-03-26T15:33:35.449Z,12.20
2019-03-26T15:36:03.935Z,12.50
2019-03-26T15:38:32.559Z,12.40
2019-03-26T15:41:01.009Z,12.30
2019-03-26T15:43:29.505Z,11.80
2019-03-26T15:45:57.926Z,11.50
2019-03-26T15:48:26.362Z,11.30
2019-03-26T15:50:54.799Z,11.20
2019-03-26T15:53:23.330Z,11.10
2019-03-26T15:55:51.899Z,10.80
2019-03-26T15:58:20.353Z,10.70
2019-03-26T16:00:48.797Z,10.40
2019-03-26T16:03:17.245Z,10.10
2019-03-26T16:05:45.665Z,10.00
2019-03-26T16:08:14.121Z,9.90
2019-03-26T16:10:42.553Z,10.00
2019-03-26T16:13:11.015Z,9.80
2019-03-26T16:15:44.915Z,9.70
2019-03-26T16:18:09.678Z,9.70
2019-03-26T16:20:38.114Z,9.70
2019-03-26T16:23:06.632Z,9.60
2019-03-26T16:25:35.198Z,9.60
2019-03-26T16:28:03.627Z,9.60
2019-03-26T16:30:34.424Z,9.50
2019-03-26T16:33:02.760Z,9.40
2019-03-26T16:35:31.274Z,9.40
2019-03-26T16:38:01.793Z,9.40
2019-03-26T16:40:30.240Z,9.40
2019-03-26T16:42:58.669Z,9.40
2019-03-26T16:45:27.120Z,9.40
2019-03-26T16:47:55.544Z,9.40
2019-03-26T16:50:23.989Z,9.40
2019-03-26T16:52:52.424Z,9.30
2019-03-26T16:55:20.872Z,9.20
2019-03-26T16:57:49.495Z,9.10
2019-03-26T17:00:21.286Z,9.00
2019-03-26T17:02:49.701Z,9.00
2019-03-26T17:05:21.216Z,9.00
2019-03-26T17:07:49.634Z,9.00
2019-03-26T17:10:18.160Z,9.00
2019-03-26T17:12:46.668Z,9.10
2019-03-26T17:15:15.174Z,9.10
2019-03-26T17:17:43.600Z,9.10
2019-03-26T17:20:12.280Z,9.00
2019-03-26T17:22:40.793Z,9.00
2019-03-26T17:25:09.687Z,9.00
2019-03-26T17:27:38.103Z,9.00
2019-03-26T17:30:07.098Z,9.10
2019-03-26T17:32:35.522Z,9.00
2019-03-26T17:35:05.329Z,9.00
2019-03-26T17:37:33.779Z,8.90
2019-03-26T17:40:02.379Z,8.90
2019-03-26T17:42:30.908Z,8.80
2019-03-26T17:44:59.375Z,8.70
2019-03-26T17:47:27.814Z,8.60
2019-03-26T17:49:56.236Z,8.50
2019-03-26T17:52:24.692Z,8.50
2019-03-26T17:54:53.108Z,8.40
2019-03-26T17:57:21.594Z,8.40
2019-03-26T18:43:24.098Z,6.10
2019-03-26T18:46:06.018Z,5.90
2019-03-26T18:51:54.971Z,5.70
